Time;durP1;ratioP1;P1;durP2;ratioP2;P2;SDS_P1;SDS_P2;PMS_P1;PMS_P2;Temp;Humidity;BMP_temperature;BMP_pressure;BME280_temperature;BME280_humidity;BME280_pressure;Samples;Min_cycle;Max_cycle;Signal;HPM_P1;HPM_P2
2021/05/13 00:02:24;;;;;;;21.50;13.13;;;12.40;99.90;;;;;;4967288;28;20031;-71
2021/05/13 00:04:49;;;;;;;17.65;12.88;;;12.20;99.90;;;;;;4968987;28;20095;-71
2021/05/13 00:07:16;;;;;;;21.42;14.38;;;12.20;99.90;;;;;;4960065;28;20099;-71
2021/05/13 00:09:43;;;;;;;18.73;14.02;;;12.20;99.90;;;;;;4963866;28;20262;-71
2021/05/13 00:12:25;;;;;;;20.00;15.73;;;12.20;99.90;;;;;;4963632;28;20066;-71
2021/05/13 00:14:51;;;;;;;18.40;14.38;;;12.20;99.90;;;;;;4969074;28;20035;-71
2021/05/13 00:17:17;;;;;;;17.45;13.15;;;12.10;99.90;;;;;;4967592;28;20088;-71
2021/05/13 00:19:45;;;;;;;17.02;12.73;;;12.10;99.90;;;;;;4974148;28;20171;-71
2021/05/13 00:22:10;;;;;;;20.10;13.30;;;12.00;99.90;;;;;;4965773;28;20031;-71
2021/05/13 00:24:36;;;;;;;17.13;12.93;;;12.00;99.90;;;;;;4962362;28;20070;-71
2021/05/13 00:27:03;;;;;;;20.23;14.70;;;12.00;99.90;;;;;;4967856;28;20038;-71
2021/05/13 00:29:30;;;;;;;18.15;14.13;;;11.90;99.90;;;;;;4963849;28;20035;-70
2021/05/13 00:31:56;;;;;;;22.92;15.25;;;11.80;99.90;;;;;;4971611;28;20426;-71
2021/05/13 00:34:23;;;;;;;20.45;14.68;;;11.70;99.90;;;;;;4971464;28;20038;-71
2021/05/13 00:36:51;;;;;;;22.35;14.95;;;11.70;99.90;;;;;;4969706;28;20038;-71
2021/05/13 00:39:17;;;;;;;24.35;14.60;;;11.80;99.90;;;;;;4976291;28;20030;-71
2021/05/13 00:41:44;;;;;;;25.40;14.38;;;11.80;99.90;;;;;;4967902;28;20033;-71
2021/05/13 00:44:10;;;;;;;19.17;15.48;;;11.80;99.90;;;;;;4956869;28;20027;-71
2021/05/13 00:46:36;;;;;;;17.50;12.38;;;11.80;99.90;;;;;;4958269;28;20166;-71
2021/05/13 00:49:07;;;;;;;20.88;14.45;;;11.70;99.90;;;;;;4961838;28;20042;-71
2021/05/13 00:51:33;;;;;;;17.48;13.38;;;11.70;99.90;;;;;;4954627;28;20058;-72
2021/05/13 00:53:59;;;;;;;20.85;14.57;;;11.60;99.90;;;;;;4957337;28;20074;-72
2021/05/13 00:56:29;;;;;;;23.13;14.90;;;11.60;99.90;;;;;;4961159;28;20519;-72
2021/05/13 00:59:03;;;;;;;21.23;15.55;;;11.50;99.90;;;;;;4956639;28;20045;-72
2021/05/13 01:02:02;;;;;;;22.70;15.38;;;11.50;99.90;;;;;;4956662;28;20102;-72
2021/05/13 01:04:21;;;;;;;23.43;15.93;;;11.50;99.90;;;;;;4962696;28;20507;-72
2021/05/13 01:06:48;;;;;;;25.23;16.10;;;11.50;99.90;;;;;;4964298;28;20031;-72
2021/05/13 01:09:23;;;;;;;16.25;13.85;;;11.50;99.90;;;;;;4957965;28;20027;-72
2021/05/13 01:11:54;;;;;;;17.40;14.65;;;11.50;99.90;;;;;;4960555;28;20071;-72
2021/05/13 01:19:28;;;;;;;19.83;15.30;;;11.50;99.90;;;;;;4961589;28;20248;-72
2021/05/13 01:21:56;;;;;;;20.48;15.02;;;11.50;99.90;;;;;;4959372;28;20038;-72
2021/05/13 01:24:25;;;;;;;20.73;16.70;;;11.50;99.90;;;;;;4960689;28;20031;-72
2021/05/13 01:26:51;;;;;;;21.95;15.38;;;11.40;99.90;;;;;;4949599;28;20042;-72
2021/05/13 01:29:20;;;;;;;22.70;16.50;;;11.40;99.90;;;;;;4950435;28;20063;-72
2021/05/13 01:31:48;;;;;;;23.80;18.52;;;11.30;99.90;;;;;;4960937;28;20096;-72
2021/05/13 01:34:15;;;;;;;19.83;16.60;;;11.30;99.90;;;;;;4958270;28;20045;-72
2021/05/13 01:36:41;;;;;;;21.67;17.80;;;11.20;99.90;;;;;;4967540;28;20027;-72
2021/05/13 01:39:10;;;;;;;21.60;17.60;;;11.20;99.90;;;;;;4957035;28;20042;-72
2021/05/13 01:41:36;;;;;;;26.33;20.88;;;11.10;99.90;;;;;;4961068;28;20028;-72
2021/05/13 01:44:02;;;;;;;27.73;21.38;;;11.10;99.90;;;;;;4962628;28;20042;-72
2021/05/13 01:46:29;;;;;;;26.10;19.30;;;11.00;99.90;;;;;;4961703;28;20042;-72
2021/05/13 01:48:55;;;;;;;25.50;17.58;;;11.00;99.90;;;;;;4959054;28;20417;-72
2021/05/13 01:51:22;;;;;;;19.63;16.92;;;11.00;99.90;;;;;;4969642;28;20400;-72
2021/05/13 01:53:52;;;;;;;20.90;16.13;;;11.00;99.90;;;;;;4958371;28;20230;-71
2021/05/13 01:56:19;;;;;;;19.27;16.52;;;11.00;99.90;;;;;;4949731;28;20030;-72
2021/05/13 01:58:54;;;;;;;17.40;15.57;;;11.00;99.90;;;;;;4974128;28;20387;-72
2021/05/13 02:01:20;;;;;;;23.15;16.35;;;11.10;99.90;;;;;;4964745;28;20023;-72
2021/05/13 02:03:55;;;;;;;20.80;17.35;;;11.00;99.90;;;;;;4968032;28;20038;-72
2021/05/13 02:06:23;;;;;;;21.08;17.20;;;10.90;99.90;;;;;;4960504;28;20020;-72
2021/05/13 02:08:50;;;;;;;22.38;17.05;;;11.00;99.90;;;;;;4968466;28;20038;-72
2021/05/13 02:11:16;;;;;;;24.98;17.77;;;10.90;99.90;;;;;;4969640;28;20034;-72
2021/05/13 02:13:42;;;;;;;22.45;18.05;;;10.90;99.90;;;;;;4969098;28;20039;-72
2021/05/13 02:16:09;;;;;;;22.15;18.45;;;10.90;99.90;;;;;;4945968;28;20035;-72
2021/05/13 02:18:34;;;;;;;20.70;16.65;;;11.00;99.90;;;;;;4965465;28;20035;-72
2021/05/13 02:21:00;;;;;;;23.23;18.33;;;10.90;99.90;;;;;;4979661;28;20101;-72
2021/05/13 02:23:26;;;;;;;22.10;18.63;;;10.90;99.90;;;;;;4962772;28;20110;-72
2021/05/13 02:25:51;;;;;;;21.88;18.20;;;10.90;99.90;;;;;;4967010;28;20034;-71
2021/05/13 02:28:18;;;;;;;20.63;16.48;;;10.70;99.90;;;;;;4968177;28;20466;-72
2021/05/13 02:30:44;;;;;;;20.10;16.25;;;10.70;99.90;;;;;;4968360;28;20023;-71
2021/05/13 02:33:10;;;;;;;20.13;15.02;;;10.70;99.90;;;;;;4973356;28;20043;-72
2021/05/13 02:35:37;;;;;;;19.75;15.23;;;10.70;99.90;;;;;;4963507;28;20472;-72
2021/05/13 02:38:03;;;;;;;22.88;17.27;;;10.80;99.90;;;;;;4973484;28;20046;-72
2021/05/13 02:40:29;;;;;;;23.02;15.82;;;10.80;99.90;;;;;;4969072;28;20032;-71
2021/05/13 02:42:55;;;;;;;21.00;15.90;;;10.80;99.90;;;;;;4970759;28;20034;-72
2021/05/13 02:45:21;;;;;;;21.30;17.15;;;10.80;99.90;;;;;;4972013;28;20041;-72
2021/05/13 02:47:47;;;;;;;21.38;18.20;;;10.70;99.90;;;;;;4964473;28;20110;-72
2021/05/13 02:50:14;;;;;;;25.58;19.33;;;10.70;99.90;;;;;;4972887;28;20031;-72
2021/05/13 02:52:40;;;;;;;25.80;18.13;;;10.60;99.90;;;;;;4977565;28;20027;-72
2021/05/13 02:55:07;;;;;;;22.73;16.95;;;10.50;99.90;;;;;;4976284;28;20403;-72
2021/05/13 02:57:33;;;;;;;23.45;16.50;;;10.50;99.90;;;;;;4972303;28;20035;-72
2021/05/13 03:00:26;;;;;;;23.98;17.35;;;10.40;99.90;;;;;;4975925;28;20129;-72
2021/05/13 03:02:46;;;;;;;26.88;18.98;;;10.40;99.90;;;;;;4963963;28;20092;-71
2021/05/13 03:05:13;;;;;;;24.20;18.50;;;10.40;99.90;;;;;;4963325;28;20020;-71
2021/05/13 03:07:46;;;;;;;23.90;17.77;;;10.50;99.90;;;;;;4962280;28;20034;-71
2021/05/13 03:10:20;;;;;;;28.35;19.90;;;10.50;99.90;;;;;;4964490;28;20380;-72
2021/05/13 03:12:47;;;;;;;24.27;17.77;;;10.60;99.90;;;;;;4972046;28;20031;-72
2021/05/13 03:15:13;;;;;;;22.83;16.38;;;10.50;99.90;;;;;;4964746;28;22537;-72
2021/05/13 03:17:39;;;;;;;21.27;16.52;;;10.50;99.90;;;;;;4969325;28;20043;-72
2021/05/13 03:20:05;;;;;;;21.77;17.80;;;10.50;99.90;;;;;;4973657;28;20121;-72
2021/05/13 03:22:31;;;;;;;26.50;19.75;;;10.40;99.90;;;;;;4969245;28;20034;-72
2021/05/13 03:25:04;;;;;;;27.20;18.60;;;10.40;99.90;;;;;;4971840;28;20034;-71
2021/05/13 03:27:41;;;;;;;27.70;19.35;;;10.40;99.90;;;;;;4966648;28;20467;-72
2021/05/13 03:30:10;;;;;;;24.27;16.80;;;10.30;99.90;;;;;;4970587;28;20033;-72
2021/05/13 03:32:36;;;;;;;21.73;17.52;;;10.40;99.90;;;;;;4980783;28;20092;-71
2021/05/13 03:35:02;;;;;;;21.92;17.70;;;10.40;99.90;;;;;;4971743;28;20038;-71
2021/05/13 03:37:31;;;;;;;18.35;14.68;;;10.30;99.90;;;;;;4961301;28;20020;-72
2021/05/13 03:39:57;;;;;;;17.80;14.30;;;10.20;99.90;;;;;;4967586;28;20035;-72
2021/05/13 03:42:24;;;;;;;20.38;15.32;;;10.30;99.90;;;;;;4975272;28;20363;-71
2021/05/13 03:44:51;;;;;;;21.92;16.23;;;10.20;99.90;;;;;;4975586;28;20114;-72
2021/05/13 03:47:17;;;;;;;23.33;16.90;;;10.30;99.90;;;;;;4972218;28;20383;-72
2021/05/13 03:49:43;;;;;;;20.83;16.42;;;10.20;99.90;;;;;;4973731;28;20034;-72
2021/05/13 03:52:09;;;;;;;23.55;16.95;;;10.10;99.90;;;;;;4969634;28;20038;-72
2021/05/13 03:54:34;;;;;;;22.67;17.83;;;10.10;99.90;;;;;;4972500;28;20031;-72
2021/05/13 03:57:00;;;;;;;24.00;17.52;;;10.00;99.90;;;;;;4966610;28;20531;-72
2021/05/13 03:59:26;;;;;;;28.00;19.17;;;10.10;99.90;;;;;;4968990;28;20034;-72
2021/05/13 04:02:12;;;;;;;30.05;21.30;;;10.20;99.90;;;;;;4970878;28;20050;-72
2021/05/13 04:04:38;;;;;;;28.60;21.45;;;10.10;99.90;;;;;;4963214;28;20029;-72
2021/05/13 04:07:05;;;;;;;29.95;20.17;;;10.10;99.90;;;;;;4974635;28;20109;-72
2021/05/13 04:09:31;;;;;;;27.80;20.88;;;10.20;99.90;;;;;;4971940;28;20503;-72
2021/05/13 04:11:57;;;;;;;26.65;20.77;;;10.20;99.90;;;;;;4974246;28;20582;-72
2021/05/13 04:14:23;;;;;;;29.60;20.52;;;10.10;99.90;;;;;;4961485;28;20039;-72
2021/05/13 04:16:56;;;;;;;28.40;21.27;;;10.10;99.90;;;;;;4968672;28;20442;-72
2021/05/13 04:19:22;;;;;;;30.25;21.23;;;10.00;99.90;;;;;;4969873;28;20031;-72
2021/05/13 04:21:48;;;;;;;25.65;20.65;;;10.10;99.90;;;;;;4972454;28;20046;-72
2021/05/13 04:24:14;;;;;;;29.50;20.40;;;10.00;99.90;;;;;;4969989;28;20015;-72
2021/05/13 04:26:41;;;;;;;31.50;23.05;;;10.00;99.90;;;;;;4962912;28;20479;-72
2021/05/13 04:29:09;;;;;;;29.48;22.38;;;10.10;99.90;;;;;;4965564;28;20538;-72
2021/05/13 04:31:36;;;;;;;30.30;23.10;;;10.10;99.90;;;;;;4966045;28;20023;-72
2021/05/13 04:34:03;;;;;;;31.75;23.65;;;10.10;99.90;;;;;;4966825;28;20484;-72
2021/05/13 04:36:29;;;;;;;33.50;22.50;;;10.00;99.90;;;;;;4958807;28;20070;-72
2021/05/13 04:38:55;;;;;;;30.65;22.60;;;10.10;99.90;;;;;;4966150;28;20047;-71
2021/05/13 04:41:20;;;;;;;32.50;23.42;;;10.20;99.90;;;;;;4967460;28;20064;-72
2021/05/13 04:43:46;;;;;;;34.08;25.02;;;10.20;99.90;;;;;;4973114;28;20433;-72
2021/05/13 04:46:12;;;;;;;28.08;21.92;;;10.20;99.90;;;;;;4962762;28;20026;-72
2021/05/13 04:51:25;;;;;;;29.25;21.92;;;10.30;99.90;;;;;;4957746;28;20138;-71
2021/05/13 04:53:51;;;;;;;32.10;22.63;;;10.30;99.90;;;;;;4960002;28;20038;-71
2021/05/13 04:56:17;;;;;;;28.52;22.70;;;10.30;99.90;;;;;;4962519;28;20077;-71
2021/05/13 04:58:43;;;;;;;29.02;23.27;;;10.30;99.90;;;;;;4959129;28;20039;-71
2021/05/13 05:01:09;;;;;;;31.55;22.83;;;10.40;99.90;;;;;;4965104;28;20038;-71
2021/05/13 05:03:35;;;;;;;25.48;20.85;;;10.50;99.90;;;;;;4969325;28;20396;-71
2021/05/13 05:06:01;;;;;;;31.77;21.27;;;10.60;99.90;;;;;;4966112;28;20024;-72
2021/05/13 05:08:27;;;;;;;33.28;25.17;;;10.60;99.90;;;;;;4970074;28;20039;-72
2021/05/13 05:10:52;;;;;;;28.40;23.15;;;10.60;99.90;;;;;;4964533;28;20814;-71
2021/05/13 05:13:18;;;;;;;34.28;24.92;;;10.60;99.90;;;;;;4965995;28;20049;-72
2021/05/13 05:15:44;;;;;;;31.08;24.55;;;10.70;99.90;;;;;;4966694;28;20054;-71
2021/05/13 05:18:20;;;;;;;29.67;22.92;;;10.80;99.90;;;;;;4960562;28;20035;-72
2021/05/13 05:20:46;;;;;;;32.17;23.25;;;10.90;99.90;;;;;;4967505;28;20503;-71
2021/05/13 05:23:12;;;;;;;29.77;23.55;;;11.00;99.90;;;;;;4958012;28;20067;-72
2021/05/13 05:25:38;;;;;;;28.20;23.23;;;11.10;99.90;;;;;;4964221;28;20510;-71
2021/05/13 05:28:05;;;;;;;29.70;23.23;;;11.20;99.90;;;;;;4973162;28;20049;-72
2021/05/13 05:30:34;;;;;;;30.65;25.15;;;11.30;99.90;;;;;;4972220;28;20112;-72
2021/05/13 05:33:01;;;;;;;28.83;22.48;;;11.50;99.90;;;;;;4968022;28;20061;-72
2021/05/13 05:35:27;;;;;;;31.42;23.40;;;11.60;99.90;;;;;;4972821;28;20114;-72
2021/05/13 05:37:56;;;;;;;39.38;27.35;;;11.80;99.90;;;;;;4970250;28;20062;-71
2021/05/13 05:40:23;;;;;;;57.08;36.63;;;11.90;99.90;;;;;;4972510;28;20106;-72
2021/05/13 05:42:49;;;;;;;55.78;38.40;;;12.10;99.90;;;;;;4975594;28;20047;-72
2021/05/13 05:45:16;;;;;;;67.57;44.25;;;12.20;99.90;;;;;;4963960;28;20098;-72
2021/05/13 05:47:42;;;;;;;67.20;45.05;;;12.40;99.90;;;;;;4970384;28;20033;-72
2021/05/13 05:50:09;;;;;;;65.13;42.90;;;12.50;99.90;;;;;;4966875;28;20023;-72
2021/05/13 05:52:35;;;;;;;70.45;44.10;;;12.70;99.90;;;;;;4963561;28;20460;-72
2021/05/13 05:55:01;;;;;;;77.93;48.20;;;12.80;99.90;;;;;;4963954;28;20491;-72
2021/05/13 05:57:27;;;;;;;80.90;51.55;;;12.90;99.90;;;;;;4960158;28;20030;-72
2021/05/13 05:59:52;;;;;;;76.45;48.47;;;12.80;99.90;;;;;;4958496;28;20027;-72
2021/05/13 06:02:18;;;;;;;81.72;49.85;;;13.00;99.90;;;;;;4964346;28;20030;-71
2021/05/13 06:04:44;;;;;;;74.72;47.03;;;13.10;99.90;;;;;;4965529;28;20023;-72
2021/05/13 06:07:09;;;;;;;79.47;49.03;;;13.20;99.90;;;;;;4960462;28;20031;-71
2021/05/13 06:09:35;;;;;;;72.38;49.90;;;13.30;99.90;;;;;;4968916;28;20489;-72
2021/05/13 06:12:00;;;;;;;76.78;49.63;;;13.30;99.90;;;;;;4969356;28;20039;-72
2021/05/13 06:14:26;;;;;;;78.32;49.05;;;13.40;99.90;;;;;;4965806;28;20530;-72
2021/05/13 06:16:51;;;;;;;70.93;45.95;;;13.50;99.90;;;;;;4972294;28;20027;-71
2021/05/13 06:19:18;;;;;;;66.78;43.85;;;13.50;99.90;;;;;;4960452;28;20035;-73
2021/05/13 06:21:44;;;;;;;70.35;45.85;;;13.60;99.90;;;;;;4963453;28;20380;-72
2021/05/13 06:24:11;;;;;;;62.42;42.63;;;13.70;99.90;;;;;;4962742;28;20069;-72
2021/05/13 06:26:38;;;;;;;64.47;43.47;;;13.70;99.90;;;;;;4968093;28;20027;-72
2021/05/13 06:29:05;;;;;;;69.28;45.95;;;13.70;99.90;;;;;;4963139;28;20392;-72
2021/05/13 06:31:35;;;;;;;64.47;43.67;;;13.70;99.90;;;;;;4963969;28;20031;-72
2021/05/13 06:34:01;;;;;;;62.13;41.80;;;13.90;99.90;;;;;;4967658;28;20078;-72
2021/05/13 06:36:27;;;;;;;65.57;45.28;;;14.10;99.90;;;;;;4965104;28;20054;-71
2021/05/13 06:38:53;;;;;;;67.20;46.28;;;14.30;99.90;;;;;;4968792;28;20108;-71
2021/05/13 06:41:19;;;;;;;64.53;44.28;;;14.40;99.90;;;;;;4959693;28;20098;-72
2021/05/13 06:43:45;;;;;;;76.22;49.92;;;14.50;99.90;;;;;;4966579;28;20023;-72
2021/05/13 06:46:11;;;;;;;69.35;47.63;;;14.60;99.90;;;;;;4968700;28;20089;-72
2021/05/13 06:48:37;;;;;;;65.20;42.83;;;14.60;99.90;;;;;;4970104;28;20035;-72
2021/05/13 06:51:05;;;;;;;68.20;43.70;;;14.70;99.90;;;;;;4962108;28;20044;-72
2021/05/13 06:53:31;;;;;;;64.60;43.63;;;14.70;99.90;;;;;;4964745;28;20046;-72
2021/05/13 06:55:56;;;;;;;67.32;41.22;;;14.70;99.90;;;;;;4954861;28;20033;-72
2021/05/13 06:58:23;;;;;;;69.68;42.88;;;15.00;99.90;;;;;;4966953;28;20547;-72
2021/05/13 07:00:49;;;;;;;53.45;36.15;;;15.00;99.90;;;;;;4965627;28;20034;-72
2021/05/13 07:03:16;;;;;;;47.20;33.80;;;15.20;99.90;;;;;;4967454;28;20027;-72
2021/05/13 07:05:42;;;;;;;49.83;32.28;;;15.30;99.90;;;;;;4960296;28;20023;-72
2021/05/13 07:08:09;;;;;;;49.53;33.22;;;15.50;99.90;;;;;;4965444;28;20476;-72
2021/05/13 07:10:39;;;;;;;49.00;32.35;;;15.70;99.90;;;;;;4966316;28;20019;-72
2021/05/13 07:13:05;;;;;;;39.15;27.27;;;15.80;99.90;;;;;;4964283;28;20027;-72
2021/05/13 07:15:32;;;;;;;39.72;28.30;;;15.90;99.90;;;;;;4961075;28;20090;-72
2021/05/13 07:17:58;;;;;;;36.28;26.17;;;16.00;99.90;;;;;;4965456;28;20041;-72
2021/05/13 07:20:24;;;;;;;35.88;24.23;;;16.00;99.90;;;;;;4966333;28;20031;-72
2021/05/13 07:22:50;;;;;;;44.20;26.85;;;16.30;99.90;;;;;;4964332;28;20031;-72
2021/05/13 07:25:16;;;;;;;42.72;27.38;;;16.20;99.90;;;;;;4963588;28;20105;-72
2021/05/13 07:27:43;;;;;;;38.38;28.23;;;16.30;99.90;;;;;;4968230;28;20027;-72
2021/05/13 07:30:10;;;;;;;37.95;23.88;;;16.30;99.90;;;;;;4968725;28;20063;-72
2021/05/13 07:32:36;;;;;;;31.25;16.85;;;16.50;99.90;;;;;;4973664;28;20378;-71
2021/05/13 07:35:02;;;;;;;23.85;16.20;;;16.40;99.90;;;;;;4963558;28;20035;-72
2021/05/13 07:37:27;;;;;;;24.15;16.50;;;16.50;99.90;;;;;;4969156;28;20459;-72
2021/05/13 07:39:53;;;;;;;20.38;15.73;;;16.80;99.90;;;;;;4968007;28;20023;-72
2021/05/13 07:42:19;;;;;;;23.92;17.45;;;16.80;99.90;;;;;;4966036;28;20045;-72
2021/05/13 07:44:44;;;;;;;23.13;16.00;;;16.70;99.90;;;;;;4969902;28;20034;-72
2021/05/13 07:47:11;;;;;;;24.83;15.48;;;16.70;99.90;;;;;;4964222;28;20035;-72
2021/05/13 07:49:37;;;;;;;22.13;13.20;;;16.80;99.90;;;;;;4967461;28;20391;-72
2021/05/13 07:52:03;;;;;;;20.52;14.27;;;16.90;99.90;;;;;;4968213;28;20022;-72
2021/05/13 07:54:29;;;;;;;26.75;15.98;;;16.90;99.90;;;;;;4965321;28;20042;-72
2021/05/13 07:56:54;;;;;;;20.63;13.55;;;17.00;99.90;;;;;;4962495;28;20039;-72
2021/05/13 07:59:20;;;;;;;17.60;12.55;;;17.00;99.90;;;;;;4962132;28;20050;-72
2021/05/13 08:01:46;;;;;;;27.08;17.10;;;17.00;99.90;;;;;;4958165;28;20031;-71
2021/05/13 08:04:12;;;;;;;25.08;17.30;;;17.10;99.90;;;;;;4966341;28;20027;-72
2021/05/13 08:06:37;;;;;;;28.38;18.23;;;17.10;99.90;;;;;;4966314;28;20028;-72
2021/05/13 08:09:04;;;;;;;25.45;17.08;;;17.10;99.90;;;;;;4968243;28;20038;-72
2021/05/13 08:11:29;;;;;;;23.58;17.40;;;17.30;99.90;;;;;;4962980;28;20361;-72
2021/05/13 08:13:55;;;;;;;26.20;17.55;;;17.30;99.90;;;;;;4963241;28;20035;-72
2021/05/13 08:16:21;;;;;;;25.38;17.30;;;17.30;99.90;;;;;;4962651;28;20062;-72
2021/05/13 08:18:47;;;;;;;27.92;18.23;;;17.40;99.90;;;;;;4965988;28;20047;-72
2021/05/13 08:21:13;;;;;;;23.63;15.77;;;17.50;99.90;;;;;;4969596;28;20029;-72
2021/05/13 08:23:39;;;;;;;24.30;16.77;;;17.50;99.90;;;;;;4966929;28;20400;-72
2021/05/13 08:26:04;;;;;;;25.55;15.38;;;17.70;99.90;;;;;;4958687;28;20058;-73
2021/05/13 08:28:30;;;;;;;21.95;13.75;;;17.90;99.90;;;;;;4963721;28;20028;-72
2021/05/13 08:30:55;;;;;;;15.75;10.95;;;17.90;99.90;;;;;;4968745;28;20093;-72
2021/05/13 08:33:21;;;;;;;15.68;10.10;;;18.00;99.90;;;;;;4959968;28;20054;-72
2021/05/13 08:35:47;;;;;;;14.55;10.80;;;18.10;99.90;;;;;;4968711;28;20026;-72
2021/05/13 08:38:12;;;;;;;20.38;12.52;;;18.20;99.90;;;;;;4967802;28;20042;-72
2021/05/13 08:40:38;;;;;;;17.42;11.23;;;18.30;99.90;;;;;;4963484;28;20031;-72
2021/05/13 08:43:04;;;;;;;22.05;11.60;;;18.30;99.90;;;;;;4973037;28;20023;-72
2021/05/13 08:45:33;;;;;;;18.67;11.60;;;18.40;99.90;;;;;;4979455;28;20034;-72
2021/05/13 08:48:01;;;;;;;21.58;10.65;;;18.40;99.90;;;;;;4963598;28;20031;-72
2021/05/13 08:50:27;;;;;;;15.27;10.05;;;18.50;99.90;;;;;;4973108;28;20034;-72
2021/05/13 08:52:55;;;;;;;15.40;9.10;;;18.60;99.90;;;;;;4978950;28;20076;-72
2021/05/13 08:55:21;;;;;;;17.42;9.75;;;18.60;99.90;;;;;;4968046;28;20042;-72
2021/05/13 08:57:47;;;;;;;14.23;9.52;;;18.80;99.90;;;;;;4966325;28;20033;-72
2021/05/13 09:00:13;;;;;;;13.85;8.27;;;18.90;99.90;;;;;;4969846;28;20396;-72
2021/05/13 09:02:49;;;;;;;9.63;7.38;;;18.80;99.90;;;;;;4972798;28;20015;-72
2021/05/13 09:05:15;;;;;;;10.63;5.82;;;19.10;99.90;;;;;;4964148;28;20034;-72
2021/05/13 09:07:40;;;;;;;10.05;6.75;;;19.10;99.90;;;;;;4969780;28;20395;-72
2021/05/13 09:10:14;;;;;;;8.15;6.35;;;19.20;99.90;;;;;;4959326;28;20035;-72
2021/05/13 09:12:41;;;;;;;12.65;6.80;;;19.40;99.90;;;;;;4965087;28;20035;-72
2021/05/13 09:15:15;;;;;;;9.85;5.93;;;19.30;99.60;;;;;;4967184;28;20043;-72
2021/05/13 09:17:43;;;;;;;8.82;5.05;;;19.40;99.70;;;;;;4965759;28;20110;-73
2021/05/13 09:20:22;;;;;;;10.85;6.25;;;19.20;99.70;;;;;;4967731;28;20044;-72
2021/05/13 09:22:48;;;;;;;9.90;5.22;;;19.30;99.90;;;;;;4957843;28;20031;-72
2021/05/13 09:25:14;;;;;;;8.32;3.88;;;19.10;98.10;;;;;;4962413;28;20555;-72
2021/05/13 09:27:49;;;;;;;8.57;3.05;;;19.20;98.30;;;;;;4964328;28;20022;-72
2021/05/13 09:30:21;;;;;;;7.97;3.08;;;19.50;98.30;;;;;;4963492;28;20041;-72
2021/05/13 09:32:47;;;;;;;;;;;19.60;96.30;;;;;;4967456;28;20023;-73
2021/05/13 09:35:16;;;;;;;5.75;3.33;;;19.60;94.80;;;;;;4964670;28;19961;-72
2021/05/13 09:37:53;;;;;;;11.63;3.92;;;19.60;96.50;;;;;;4965856;28;20023;-73
2021/05/13 09:40:40;;;;;;;11.75;3.60;;;19.70;96.00;;;;;;4968633;28;20046;-72
2021/05/13 09:43:16;;;;;;;7.90;4.18;;;19.90;98.00;;;;;;4961880;28;20031;-72
2021/05/13 09:45:50;;;;;;;7.65;4.38;;;19.90;96.50;;;;;;4970340;28;20042;-72
2021/05/13 09:48:56;;;;;;;7.82;4.22;;;19.90;96.10;;;;;;4967911;28;20732;-72
2021/05/13 09:51:23;;;;;;;8.95;4.07;;;19.80;95.40;;;;;;4951986;28;20038;-72
2021/05/13 09:54:17;;;;;;;5.50;3.75;;;20.10;95.70;;;;;;4966731;28;20038;-72
2021/05/13 09:56:51;;;;;;;6.20;3.80;;;20.30;95.60;;;;;;4972331;28;20031;-72
2021/05/13 09:59:27;;;;;;;6.45;4.13;;;20.30;95.50;;;;;;4965524;28;20480;-72
2021/05/13 10:01:55;;;;;;;11.07;3.72;;;20.50;94.80;;;;;;4969155;28;20050;-72
2021/05/13 10:04:21;;;;;;;5.97;3.42;;;20.60;95.80;;;;;;4967979;28;20023;-72
2021/05/13 10:06:47;;;;;;;5.38;3.35;;;20.70;97.10;;;;;;4971987;28;20055;-72
2021/05/13 10:09:15;;;;;;;6.55;4.15;;;20.90;96.10;;;;;;4972851;28;20026;-72
2021/05/13 10:11:49;;;;;;;6.43;3.50;;;20.90;94.60;;;;;;4963896;28;20119;-73
2021/05/13 10:14:15;;;;;;;9.85;4.38;;;20.90;94.90;;;;;;4963625;28;20594;-72
2021/05/13 10:16:41;;;;;;;7.03;3.83;;;20.80;94.10;;;;;;4961722;28;20015;-72
2021/05/13 10:19:27;;;;;;;6.03;2.97;;;20.90;95.50;;;;;;4964592;28;20043;-72
2021/05/13 10:21:55;;;;;;;6.72;2.95;;;21.00;94.20;;;;;;4968764;28;20391;-72
2021/05/13 10:24:21;;;;;;;9.07;3.58;;;21.00;94.10;;;;;;4960599;28;20030;-72
2021/05/13 10:26:51;;;;;;;7.97;3.03;;;21.10;92.30;;;;;;4963440;28;20032;-72
2021/05/13 10:29:22;;;;;;;5.22;2.70;;;21.20;92.70;;;;;;4966779;28;20034;-72
2021/05/13 10:31:51;;;;;;;6.35;2.70;;;21.30;93.70;;;;;;4974975;28;20109;-72
2021/05/13 10:34:43;;;;;;;2.83;1.95;;;21.20;92.70;;;;;;4969386;28;20437;-72
2021/05/13 10:37:12;;;;;;;3.63;2.33;;;21.40;92.80;;;;;;4970469;28;20029;-72
2021/05/13 10:42:48;;;;;;;4.28;2.10;;;21.00;91.00;;;;;;4961183;28;20502;-72
2021/05/13 10:45:25;;;;;;;5.80;2.08;;;20.80;92.20;;;;;;4962204;28;20038;-72
2021/05/13 10:48:26;;;;;;;4.88;2.40;;;20.50;91.80;;;;;;4967562;28;20081;-72
2021/05/13 10:51:03;;;;;;;6.85;2.55;;;20.70;93.70;;;;;;4967049;28;20101;-73
2021/05/13 10:53:55;;;;;;;5.03;2.50;;;20.80;92.20;;;;;;4970661;28;20038;-72
2021/05/13 10:56:27;;;;;;;4.50;2.20;;;20.60;90.70;;;;;;4971031;28;20022;-72
2021/05/13 10:58:53;;;;;;;;;;;20.40;92.10;;;;;;4976563;28;20467;-72
2021/05/13 11:01:33;;;;;;;7.03;2.30;;;20.60;91.90;;;;;;4965284;28;19917;-72
2021/05/13 11:04:24;;;;;;;7.53;2.22;;;20.90;92.60;;;;;;4969790;28;20037;-73
2021/05/13 11:06:51;;;;;;;6.72;2.47;;;21.00;90.90;;;;;;4972220;28;20037;-72
2021/05/13 11:09:37;;;;;;;4.03;2.20;;;21.10;90.50;;;;;;4967160;28;20023;-73
2021/05/13 11:12:14;;;;;;;5.70;1.60;;;21.40;91.90;;;;;;4962983;28;20038;-72
2021/05/13 11:15:08;;;;;;;8.77;2.22;;;21.60;91.40;;;;;;4966560;28;20067;-72
2021/05/13 11:18:00;;;;;;;5.22;1.73;;;21.70;91.80;;;;;;4975353;28;20129;-72
2021/05/13 11:20:39;;;;;;;6.27;1.60;;;21.40;90.10;;;;;;4970767;28;20093;-72
2021/05/13 11:23:05;;;;;;;4.15;1.50;;;21.30;90.60;;;;;;4964701;28;20480;-72
2021/05/13 11:26:00;;;;;;;3.47;1.65;;;21.20;90.80;;;;;;4963871;28;20043;-72
2021/05/13 11:28:43;;;;;;;8.70;1.58;;;20.90;90.10;;;;;;4966542;28;20031;-72
2021/05/13 11:31:09;;;;;;;;;;;20.80;91.30;;;;;;4970724;28;20118;-72
2021/05/13 11:33:55;;;;;;;9.27;1.77;;;20.90;90.70;;;;;;4964540;28;20009;-72
2021/05/13 11:36:29;;;;;;;4.82;2.13;;;20.90;91.10;;;;;;4968250;28;20055;-72
2021/05/13 11:38:56;;;;;;;4.05;1.70;;;20.90;88.00;;;;;;4959070;28;20037;-75
2021/05/13 11:41:25;;;;;;;4.55;1.60;;;20.90;90.20;;;;;;4967521;28;20035;-72
2021/05/13 11:43:52;;;;;;;6.05;2.05;;;20.90;88.90;;;;;;4971764;28;20475;-72
2021/05/13 11:46:23;;;;;;;4.85;1.58;;;20.90;91.00;;;;;;4970711;28;20501;-73
2021/05/13 11:48:51;;;;;;;5.10;1.63;;;21.00;88.30;;;;;;4969811;28;20129;-73
2021/05/13 11:51:20;;;;;;;16.88;1.90;;;21.10;90.00;;;;;;4963920;28;20015;-73
2021/05/13 11:53:47;;;;;;;4.95;1.50;;;21.20;89.60;;;;;;4969320;28;20041;-72
2021/05/13 11:56:14;;;;;;;3.10;1.42;;;21.20;89.00;;;;;;4956800;28;20468;-73
2021/05/13 11:58:46;;;;;;;3.88;1.77;;;21.20;88.80;;;;;;4964757;28;20031;-73
2021/05/13 12:01:35;;;;;;;3.55;1.50;;;21.20;90.10;;;;;;4967071;28;20027;-72
2021/05/13 12:04:08;;;;;;;4.35;1.27;;;21.20;87.70;;;;;;4959471;28;20034;-72
2021/05/13 12:06:45;;;;;;;3.85;1.63;;;21.20;90.10;;;;;;4957231;28;20026;-73
2021/05/13 12:09:12;;;;;;;5.30;1.40;;;21.00;84.80;;;;;;4958813;28;20465;-73
2021/05/13 12:11:38;;;;;;;3.47;1.42;;;21.00;88.60;;;;;;4961919;28;20015;-73
2021/05/13 12:14:13;;;;;;;5.03;1.40;;;21.00;87.70;;;;;;4965100;28;20042;-73
2021/05/13 12:16:42;;;;;;;3.78;1.33;;;21.00;88.60;;;;;;4961391;28;20030;-75
2021/05/13 12:19:13;;;;;;;3.97;1.50;;;20.90;91.10;;;;;;4963214;28;20685;-74
2021/05/13 12:21:42;;;;;;;5.60;1.90;;;20.70;87.70;;;;;;4960577;28;20085;-75
2021/05/13 12:24:10;;;;;;;3.72;1.67;;;20.50;87.30;;;;;;4962335;28;20034;-77
2021/05/13 12:26:39;;;;;;;2.85;1.08;;;20.60;89.80;;;;;;4953476;28;20030;-74
2021/05/13 12:29:06;;;;;;;3.08;1.48;;;20.40;89.50;;;;;;4942487;28;20047;-74
2021/05/13 12:31:38;;;;;;;5.15;1.35;;;20.40;89.60;;;;;;4957717;28;20049;-76
2021/05/13 12:34:06;;;;;;;5.75;1.52;;;20.20;90.90;;;;;;4958633;28;20046;-75
2021/05/13 12:36:33;;;;;;;8.23;1.83;;;20.30;91.80;;;;;;4952343;28;20472;-74
2021/05/13 12:39:00;;;;;;;3.63;1.65;;;20.20;93.00;;;;;;4957154;28;20670;-73
2021/05/13 12:41:27;;;;;;;6.03;1.30;;;20.10;94.80;;;;;;4956025;28;20078;-74
2021/05/13 12:44:14;;;;;;;7.55;1.60;;;20.00;95.90;;;;;;4950864;28;20035;-73
2021/05/13 12:46:48;;;;;;;7.43;1.95;;;19.90;96.80;;;;;;4960880;28;20402;-74
2021/05/13 12:49:23;;;;;;;3.53;1.45;;;20.00;97.70;;;;;;4963626;28;20027;-74
2021/05/13 12:52:02;;;;;;;4.93;1.65;;;19.90;99.00;;;;;;4956373;28;20035;-77
2021/05/13 12:54:28;;;;;;;5.28;2.00;;;19.80;99.90;;;;;;4957994;28;20908;-75